sensor_id;sensor_type;location;lat;lon;timestamp;P1;durP1;ratioP1;P2;durP2;ratioP2
5650;SDS011;40241;52.684;9.758;2022-07-19T00:02:04;2.33;;;2.23;;
5650;SDS011;40241;52.684;9.758;2022-07-19T00:04:30;2.87;;;2.67;;
5650;SDS011;40241;52.684;9.758;2022-07-19T00:06:56;3.10;;;2.90;;
5650;SDS011;40241;52.684;9.758;2022-07-19T00:09:22;2.33;;;2.17;;
5650;SDS011;40241;52.684;9.758;2022-07-19T00:11:48;2.40;;;2.27;;
5650;SDS011;40241;52.684;9.758;2022-07-19T00:14:14;2.50;;;2.30;;
5650;SDS011;40241;52.684;9.758;2022-07-19T00:16:40;3.10;;;2.67;;
5650;SDS011;40241;52.684;9.758;2022-07-19T00:19:06;3.67;;;3.00;;
5650;SDS011;40241;52.684;9.758;2022-07-19T00:21:31;2.67;;;2.50;;
5650;SDS011;40241;52.684;9.758;2022-07-19T00:23:56;2.77;;;2.50;;
5650;SDS011;40241;52.684;9.758;2022-07-19T00:26:22;3.40;;;2.33;;
5650;SDS011;40241;52.684;9.758;2022-07-19T00:28:47;3.07;;;2.87;;
5650;SDS011;40241;52.684;9.758;2022-07-19T00:31:13;2.53;;;2.33;;
5650;SDS011;40241;52.684;9.758;2022-07-19T00:33:38;2.43;;;2.33;;
5650;SDS011;40241;52.684;9.758;2022-07-19T00:36:04;2.30;;;2.20;;
5650;SDS011;40241;52.684;9.758;2022-07-19T00:38:29;4.00;;;3.10;;
5650;SDS011;40241;52.684;9.758;2022-07-19T00:40:55;3.30;;;3.00;;
5650;SDS011;40241;52.684;9.758;2022-07-19T00:43:20;4.10;;;2.60;;
5650;SDS011;40241;52.684;9.758;2022-07-19T00:45:45;2.43;;;2.27;;
5650;SDS011;40241;52.684;9.758;2022-07-19T00:48:11;2.53;;;2.33;;
5650;SDS011;40241;52.684;9.758;2022-07-19T00:50:36;3.30;;;2.90;;
5650;SDS011;40241;52.684;9.758;2022-07-19T00:53:02;2.77;;;2.57;;
5650;SDS011;40241;52.684;9.758;2022-07-19T00:55:30;3.37;;;2.83;;
5650;SDS011;40241;52.684;9.758;2022-07-19T00:58:03;2.67;;;2.47;;
5650;SDS011;40241;52.684;9.758;2022-07-19T01:00:29;2.63;;;2.43;;
5650;SDS011;40241;52.684;9.758;2022-07-19T01:02:57;2.17;;;2.07;;
5650;SDS011;40241;52.684;9.758;2022-07-19T01:05:23;2.80;;;2.60;;
5650;SDS011;40241;52.684;9.758;2022-07-19T01:07:48;4.50;;;3.33;;
5650;SDS011;40241;52.684;9.758;2022-07-19T01:10:14;3.00;;;2.70;;
5650;SDS011;40241;52.684;9.758;2022-07-19T01:12:41;2.50;;;2.30;;
5650;SDS011;40241;52.684;9.758;2022-07-19T01:17:44;2.97;;;2.77;;
5650;SDS011;40241;52.684;9.758;2022-07-19T01:20:10;3.70;;;2.83;;
5650;SDS011;40241;52.684;9.758;2022-07-19T01:22:35;3.30;;;3.00;;
5650;SDS011;40241;52.684;9.758;2022-07-19T01:25:01;3.47;;;3.17;;
5650;SDS011;40241;52.684;9.758;2022-07-19T01:27:27;2.73;;;2.53;;
5650;SDS011;40241;52.684;9.758;2022-07-19T01:29:52;3.07;;;2.87;;
5650;SDS011;40241;52.684;9.758;2022-07-19T01:32:17;3.07;;;2.80;;
5650;SDS011;40241;52.684;9.758;2022-07-19T01:34:43;2.60;;;2.40;;
5650;SDS011;40241;52.684;9.758;2022-07-19T01:37:08;3.47;;;3.10;;
5650;SDS011;40241;52.684;9.758;2022-07-19T01:39:33;2.90;;;2.70;;
5650;SDS011;40241;52.684;9.758;2022-07-19T01:41:59;4.30;;;3.10;;
5650;SDS011;40241;52.684;9.758;2022-07-19T01:44:24;3.10;;;2.90;;
5650;SDS011;40241;52.684;9.758;2022-07-19T01:46:49;2.90;;;2.63;;
5650;SDS011;40241;52.684;9.758;2022-07-19T01:49:14;3.20;;;2.90;;
5650;SDS011;40241;52.684;9.758;2022-07-19T01:51:40;4.03;;;3.00;;
5650;SDS011;40241;52.684;9.758;2022-07-19T01:54:05;2.73;;;2.53;;
5650;SDS011;40241;52.684;9.758;2022-07-19T01:56:30;2.77;;;2.60;;
5650;SDS011;40241;52.684;9.758;2022-07-19T01:58:56;3.03;;;2.83;;
5650;SDS011;40241;52.684;9.758;2022-07-19T02:01:21;3.50;;;2.70;;
5650;SDS011;40241;52.684;9.758;2022-07-19T02:03:46;2.93;;;2.73;;
5650;SDS011;40241;52.684;9.758;2022-07-19T02:06:12;3.10;;;2.83;;
5650;SDS011;40241;52.684;9.758;2022-07-19T02:08:37;3.10;;;2.80;;
5650;SDS011;40241;52.684;9.758;2022-07-19T02:11:04;2.83;;;2.63;;
5650;SDS011;40241;52.684;9.758;2022-07-19T02:13:49;2.33;;;2.13;;
5650;SDS011;40241;52.684;9.758;2022-07-19T02:16:14;3.10;;;2.90;;
5650;SDS011;40241;52.684;9.758;2022-07-19T02:18:40;3.03;;;2.83;;
5650;SDS011;40241;52.684;9.758;2022-07-19T02:21:05;3.67;;;2.73;;
5650;SDS011;40241;52.684;9.758;2022-07-19T02:23:31;2.03;;;1.93;;
5650;SDS011;40241;52.684;9.758;2022-07-19T02:25:56;4.33;;;2.40;;
5650;SDS011;40241;52.684;9.758;2022-07-19T02:28:21;2.73;;;2.50;;
5650;SDS011;40241;52.684;9.758;2022-07-19T02:30:47;3.30;;;3.00;;
5650;SDS011;40241;52.684;9.758;2022-07-19T02:33:12;2.93;;;2.73;;
5650;SDS011;40241;52.684;9.758;2022-07-19T02:35:37;2.97;;;2.77;;
5650;SDS011;40241;52.684;9.758;2022-07-19T02:38:03;3.10;;;2.80;;
5650;SDS011;40241;52.684;9.758;2022-07-19T02:40:28;2.73;;;2.50;;
5650;SDS011;40241;52.684;9.758;2022-07-19T02:42:53;2.43;;;2.23;;
5650;SDS011;40241;52.684;9.758;2022-07-19T02:45:19;3.40;;;3.10;;
5650;SDS011;40241;52.684;9.758;2022-07-19T02:47:44;2.80;;;2.60;;
5650;SDS011;40241;52.684;9.758;2022-07-19T02:50:12;2.80;;;2.60;;
5650;SDS011;40241;52.684;9.758;2022-07-19T02:52:37;2.90;;;2.70;;
5650;SDS011;40241;52.684;9.758;2022-07-19T02:55:02;2.80;;;2.60;;
5650;SDS011;40241;52.684;9.758;2022-07-19T02:57:28;3.10;;;2.80;;
5650;SDS011;40241;52.684;9.758;2022-07-19T02:59:54;3.50;;;3.20;;
5650;SDS011;40241;52.684;9.758;2022-07-19T03:02:19;2.77;;;2.60;;
5650;SDS011;40241;52.684;9.758;2022-07-19T03:04:45;3.73;;;3.43;;
5650;SDS011;40241;52.684;9.758;2022-07-19T03:07:10;3.27;;;2.97;;
5650;SDS011;40241;52.684;9.758;2022-07-19T03:09:35;3.40;;;2.97;;
5650;SDS011;40241;52.684;9.758;2022-07-19T03:12:01;3.63;;;2.63;;
5650;SDS011;40241;52.684;9.758;2022-07-19T03:14:26;2.50;;;2.30;;
5650;SDS011;40241;52.684;9.758;2022-07-19T03:16:52;3.70;;;3.40;;
5650;SDS011;40241;52.684;9.758;2022-07-19T03:19:18;2.93;;;2.73;;
5650;SDS011;40241;52.684;9.758;2022-07-19T03:21:43;3.20;;;3.00;;
5650;SDS011;40241;52.684;9.758;2022-07-19T03:24:09;4.47;;;3.30;;
5650;SDS011;40241;52.684;9.758;2022-07-19T03:26:34;2.90;;;2.70;;
5650;SDS011;40241;52.684;9.758;2022-07-19T03:28:59;3.27;;;3.07;;
5650;SDS011;40241;52.684;9.758;2022-07-19T03:31:27;3.73;;;3.40;;
5650;SDS011;40241;52.684;9.758;2022-07-19T03:33:53;3.40;;;3.10;;
5650;SDS011;40241;52.684;9.758;2022-07-19T03:36:18;3.30;;;3.10;;
5650;SDS011;40241;52.684;9.758;2022-07-19T03:38:44;2.80;;;2.60;;
5650;SDS011;40241;52.684;9.758;2022-07-19T03:41:12;3.80;;;2.60;;
5650;SDS011;40241;52.684;9.758;2022-07-19T03:43:38;3.23;;;3.00;;
5650;SDS011;40241;52.684;9.758;2022-07-19T03:46:05;6.83;;;2.90;;
5650;SDS011;40241;52.684;9.758;2022-07-19T03:48:31;3.90;;;3.23;;
5650;SDS011;40241;52.684;9.758;2022-07-19T03:50:56;3.20;;;3.00;;
5650;SDS011;40241;52.684;9.758;2022-07-19T03:53:24;3.23;;;2.93;;
5650;SDS011;40241;52.684;9.758;2022-07-19T03:55:49;2.73;;;2.53;;
5650;SDS011;40241;52.684;9.758;2022-07-19T03:58:15;3.30;;;3.00;;
5650;SDS011;40241;52.684;9.758;2022-07-19T04:00:42;3.50;;;3.00;;
5650;SDS011;40241;52.684;9.758;2022-07-19T04:03:10;3.83;;;3.17;;
5650;SDS011;40241;52.684;9.758;2022-07-19T04:05:40;2.73;;;2.53;;
5650;SDS011;40241;52.684;9.758;2022-07-19T04:08:08;4.53;;;3.00;;
5650;SDS011;40241;52.684;9.758;2022-07-19T04:10:34;3.50;;;3.20;;
5650;SDS011;40241;52.684;9.758;2022-07-19T04:13:07;2.90;;;2.70;;
5650;SDS011;40241;52.684;9.758;2022-07-19T04:15:33;3.60;;;3.30;;
5650;SDS011;40241;52.684;9.758;2022-07-19T04:18:01;3.77;;;3.00;;
5650;SDS011;40241;52.684;9.758;2022-07-19T04:20:26;6.37;;;2.50;;
5650;SDS011;40241;52.684;9.758;2022-07-19T04:22:52;3.43;;;3.13;;
5650;SDS011;40241;52.684;9.758;2022-07-19T04:25:18;3.77;;;2.70;;
5650;SDS011;40241;52.684;9.758;2022-07-19T04:27:44;3.40;;;2.97;;
5650;SDS011;40241;52.684;9.758;2022-07-19T04:30:10;3.17;;;2.87;;
5650;SDS011;40241;52.684;9.758;2022-07-19T04:32:35;3.10;;;2.80;;
5650;SDS011;40241;52.684;9.758;2022-07-19T04:38:36;3.27;;;2.97;;
5650;SDS011;40241;52.684;9.758;2022-07-19T04:51:44;3.43;;;3.13;;
5650;SDS011;40241;52.684;9.758;2022-07-19T04:54:09;2.70;;;2.50;;
5650;SDS011;40241;52.684;9.758;2022-07-19T04:56:34;3.10;;;2.70;;
5650;SDS011;40241;52.684;9.758;2022-07-19T04:59:00;3.40;;;3.10;;
5650;SDS011;40241;52.684;9.758;2022-07-19T05:01:25;4.90;;;2.87;;
5650;SDS011;40241;52.684;9.758;2022-07-19T05:03:50;4.67;;;2.77;;
5650;SDS011;40241;52.684;9.758;2022-07-19T05:06:16;5.53;;;3.13;;
5650;SDS011;40241;52.684;9.758;2022-07-19T05:08:41;3.67;;;3.33;;
5650;SDS011;40241;52.684;9.758;2022-07-19T05:11:06;6.10;;;3.47;;
5650;SDS011;40241;52.684;9.758;2022-07-19T05:13:32;9.40;;;3.43;;
5650;SDS011;40241;52.684;9.758;2022-07-19T05:15:57;6.43;;;3.33;;
5650;SDS011;40241;52.684;9.758;2022-07-19T05:18:22;5.60;;;3.50;;
5650;SDS011;40241;52.684;9.758;2022-07-19T05:20:48;5.40;;;2.80;;
5650;SDS011;40241;52.684;9.758;2022-07-19T05:23:13;9.97;;;3.70;;
5650;SDS011;40241;52.684;9.758;2022-07-19T05:25:38;5.57;;;3.37;;
5650;SDS011;40241;52.684;9.758;2022-07-19T05:28:04;8.07;;;2.80;;
5650;SDS011;40241;52.684;9.758;2022-07-19T05:30:29;4.60;;;2.80;;
5650;SDS011;40241;52.684;9.758;2022-07-19T05:32:55;4.53;;;3.20;;
5650;SDS011;40241;52.684;9.758;2022-07-19T05:35:20;4.07;;;3.13;;
5650;SDS011;40241;52.684;9.758;2022-07-19T05:37:45;9.47;;;3.50;;
5650;SDS011;40241;52.684;9.758;2022-07-19T05:40:11;8.90;;;3.40;;
5650;SDS011;40241;52.684;9.758;2022-07-19T05:42:36;9.07;;;3.50;;
5650;SDS011;40241;52.684;9.758;2022-07-19T05:45:02;7.50;;;3.77;;
5650;SDS011;40241;52.684;9.758;2022-07-19T05:47:28;4.90;;;3.03;;
5650;SDS011;40241;52.684;9.758;2022-07-19T05:49:53;7.40;;;3.20;;
5650;SDS011;40241;52.684;9.758;2022-07-19T05:52:18;5.70;;;3.50;;
5650;SDS011;40241;52.684;9.758;2022-07-19T05:54:44;7.90;;;3.40;;
5650;SDS011;40241;52.684;9.758;2022-07-19T05:57:09;4.30;;;3.10;;
5650;SDS011;40241;52.684;9.758;2022-07-19T05:59:34;5.77;;;2.70;;
5650;SDS011;40241;52.684;9.758;2022-07-19T06:02:00;8.10;;;3.50;;
5650;SDS011;40241;52.684;9.758;2022-07-19T06:04:27;2.63;;;2.43;;
5650;SDS011;40241;52.684;9.758;2022-07-19T06:06:52;2.90;;;2.70;;
5650;SDS011;40241;52.684;9.758;2022-07-19T06:09:17;2.90;;;2.70;;
5650;SDS011;40241;52.684;9.758;2022-07-19T06:11:43;3.07;;;2.87;;
5650;SDS011;40241;52.684;9.758;2022-07-19T06:14:08;2.63;;;2.47;;
5650;SDS011;40241;52.684;9.758;2022-07-19T06:16:35;4.97;;;3.10;;
5650;SDS011;40241;52.684;9.758;2022-07-19T06:19:03;2.57;;;2.37;;
5650;SDS011;40241;52.684;9.758;2022-07-19T06:21:28;4.30;;;2.93;;
5650;SDS011;40241;52.684;9.758;2022-07-19T06:23:53;2.73;;;2.60;;
5650;SDS011;40241;52.684;9.758;2022-07-19T06:26:19;3.10;;;2.90;;
5650;SDS011;40241;52.684;9.758;2022-07-19T06:28:44;2.90;;;2.70;;
5650;SDS011;40241;52.684;9.758;2022-07-19T06:31:13;2.40;;;2.20;;
5650;SDS011;40241;52.684;9.758;2022-07-19T06:33:39;2.80;;;2.60;;
5650;SDS011;40241;52.684;9.758;2022-07-19T06:36:05;3.33;;;3.03;;
5650;SDS011;40241;52.684;9.758;2022-07-19T06:38:31;2.97;;;2.57;;
5650;SDS011;40241;52.684;9.758;2022-07-19T06:40:56;3.60;;;2.80;;
5650;SDS011;40241;52.684;9.758;2022-07-19T06:43:22;2.77;;;2.57;;
5650;SDS011;40241;52.684;9.758;2022-07-19T06:45:47;2.47;;;2.27;;
5650;SDS011;40241;52.684;9.758;2022-07-19T06:48:12;2.70;;;2.50;;
5650;SDS011;40241;52.684;9.758;2022-07-19T06:50:38;2.53;;;2.33;;
5650;SDS011;40241;52.684;9.758;2022-07-19T06:53:03;2.73;;;2.53;;
5650;SDS011;40241;52.684;9.758;2022-07-19T06:55:29;3.37;;;3.07;;
5650;SDS011;40241;52.684;9.758;2022-07-19T06:57:54;2.27;;;2.07;;
5650;SDS011;40241;52.684;9.758;2022-07-19T07:00:19;6.00;;;2.30;;
5650;SDS011;40241;52.684;9.758;2022-07-19T07:02:45;4.33;;;2.53;;
5650;SDS011;40241;52.684;9.758;2022-07-19T07:05:10;3.20;;;2.17;;
5650;SDS011;40241;52.684;9.758;2022-07-19T07:07:37;2.53;;;2.30;;
5650;SDS011;40241;52.684;9.758;2022-07-19T07:10:03;2.00;;;1.90;;
5650;SDS011;40241;52.684;9.758;2022-07-19T07:12:31;2.70;;;2.30;;
5650;SDS011;40241;52.684;9.758;2022-07-19T07:14:57;3.40;;;2.50;;
5650;SDS011;40241;52.684;9.758;2022-07-19T07:17:22;2.90;;;2.70;;
5650;SDS011;40241;52.684;9.758;2022-07-19T07:19:48;2.33;;;2.13;;
5650;SDS011;40241;52.684;9.758;2022-07-19T07:22:13;3.17;;;2.00;;
5650;SDS011;40241;52.684;9.758;2022-07-19T07:24:39;3.20;;;2.20;;
5650;SDS011;40241;52.684;9.758;2022-07-19T07:27:04;2.37;;;2.17;;
5650;SDS011;40241;52.684;9.758;2022-07-19T07:29:30;2.90;;;2.20;;
5650;SDS011;40241;52.684;9.758;2022-07-19T07:31:55;2.07;;;1.87;;
5650;SDS011;40241;52.684;9.758;2022-07-19T07:34:21;2.80;;;2.60;;
5650;SDS011;40241;52.684;9.758;2022-07-19T07:36:47;3.33;;;2.53;;
5650;SDS011;40241;52.684;9.758;2022-07-19T07:39:13;2.40;;;2.20;;
5650;SDS011;40241;52.684;9.758;2022-07-19T07:41:38;2.43;;;2.23;;
5650;SDS011;40241;52.684;9.758;2022-07-19T07:44:04;3.10;;;2.07;;
5650;SDS011;40241;52.684;9.758;2022-07-19T07:46:30;2.47;;;2.00;;
5650;SDS011;40241;52.684;9.758;2022-07-19T07:48:55;3.47;;;2.40;;
5650;SDS011;40241;52.684;9.758;2022-07-19T07:51:21;2.70;;;2.50;;
5650;SDS011;40241;52.684;9.758;2022-07-19T07:53:46;2.50;;;1.83;;
5650;SDS011;40241;52.684;9.758;2022-07-19T07:56:11;3.10;;;2.67;;
5650;SDS011;40241;52.684;9.758;2022-07-19T07:58:37;3.27;;;2.50;;
5650;SDS011;40241;52.684;9.758;2022-07-19T08:01:02;3.83;;;2.47;;
5650;SDS011;40241;52.684;9.758;2022-07-19T08:03:28;2.77;;;2.57;;
5650;SDS011;40241;52.684;9.758;2022-07-19T08:05:54;2.17;;;1.97;;
5650;SDS011;40241;52.684;9.758;2022-07-19T08:08:19;1.80;;;1.70;;
5650;SDS011;40241;52.684;9.758;2022-07-19T08:10:45;2.40;;;2.17;;
5650;SDS011;40241;52.684;9.758;2022-07-19T08:13:10;2.40;;;2.27;;
5650;SDS011;40241;52.684;9.758;2022-07-19T08:15:36;2.47;;;2.23;;
5650;SDS011;40241;52.684;9.758;2022-07-19T08:18:02;2.30;;;1.97;;
5650;SDS011;40241;52.684;9.758;2022-07-19T08:20:28;1.83;;;1.73;;
5650;SDS011;40241;52.684;9.758;2022-07-19T08:22:53;1.97;;;1.70;;
5650;SDS011;40241;52.684;9.758;2022-07-19T08:25:19;1.97;;;1.87;;
5650;SDS011;40241;52.684;9.758;2022-07-19T08:27:44;3.13;;;1.97;;
5650;SDS011;40241;52.684;9.758;2022-07-19T08:30:10;2.70;;;2.30;;
5650;SDS011;40241;52.684;9.758;2022-07-19T08:32:37;2.03;;;1.93;;
5650;SDS011;40241;52.684;9.758;2022-07-19T08:35:03;4.43;;;1.53;;
5650;SDS011;40241;52.684;9.758;2022-07-19T08:37:29;4.33;;;1.90;;
5650;SDS011;40241;52.684;9.758;2022-07-19T08:39:55;2.23;;;2.10;;
5650;SDS011;40241;52.684;9.758;2022-07-19T08:42:20;2.67;;;1.87;;
5650;SDS011;40241;52.684;9.758;2022-07-19T08:44:47;2.33;;;2.13;;
5650;SDS011;40241;52.684;9.758;2022-07-19T08:47:15;2.10;;;2.00;;
5650;SDS011;40241;52.684;9.758;2022-07-19T08:49:43;2.00;;;1.90;;
5650;SDS011;40241;52.684;9.758;2022-07-19T08:52:08;2.20;;;2.00;;
5650;SDS011;40241;52.684;9.758;2022-07-19T08:54:34;1.80;;;1.70;;
5650;SDS011;40241;52.684;9.758;2022-07-19T08:56:59;2.00;;;1.90;;
5650;SDS011;40241;52.684;9.758;2022-07-19T08:59:43;2.63;;;1.77;;
5650;SDS011;40241;52.684;9.758;2022-07-19T09:02:09;1.83;;;1.73;;
5650;SDS011;40241;52.684;9.758;2022-07-19T09:04:34;2.73;;;1.97;;
5650;SDS011;40241;52.684;9.758;2022-07-19T09:06:59;2.13;;;1.67;;
5650;SDS011;40241;52.684;9.758;2022-07-19T09:09:26;2.33;;;2.13;;
5650;SDS011;40241;52.684;9.758;2022-07-19T09:11:54;1.90;;;1.80;;
5650;SDS011;40241;52.684;9.758;2022-07-19T09:14:21;2.80;;;1.40;;
5650;SDS011;40241;52.684;9.758;2022-07-19T09:16:51;1.60;;;1.50;;
5650;SDS011;40241;52.684;9.758;2022-07-19T09:19:17;1.60;;;1.50;;
5650;SDS011;40241;52.684;9.758;2022-07-19T09:22:03;1.80;;;1.70;;
5650;SDS011;40241;52.684;9.758;2022-07-19T09:24:30;2.00;;;1.90;;
5650;SDS011;40241;52.684;9.758;2022-07-19T09:27:05;2.87;;;1.60;;
5650;SDS011;40241;52.684;9.758;2022-07-19T09:29:36;2.03;;;1.73;;
5650;SDS011;40241;52.684;9.758;2022-07-19T09:32:06;1.70;;;1.60;;
5650;SDS011;40241;52.684;9.758;2022-07-19T09:34:40;1.50;;;1.40;;
5650;SDS011;40241;52.684;9.758;2022-07-19T09:37:20;1.70;;;1.30;;
5650;SDS011;40241;52.684;9.758;2022-07-19T09:39:49;1.60;;;1.50;;
5650;SDS011;40241;52.684;9.758;2022-07-19T09:42:17;1.27;;;1.17;;
5650;SDS011;40241;52.684;9.758;2022-07-19T09:44:45;1.17;;;1.07;;
5650;SDS011;40241;52.684;9.758;2022-07-19T09:47:11;2.80;;;1.90;;
5650;SDS011;40241;52.684;9.758;2022-07-19T09:49:36;1.50;;;1.40;;
5650;SDS011;40241;52.684;9.758;2022-07-19T09:52:02;1.93;;;1.33;;
5650;SDS011;40241;52.684;9.758;2022-07-19T09:54:28;1.17;;;1.07;;
5650;SDS011;40241;52.684;9.758;2022-07-19T09:56:55;1.27;;;1.10;;
5650;SDS011;40241;52.684;9.758;2022-07-19T09:59:22;2.40;;;1.07;;
5650;SDS011;40241;52.684;9.758;2022-07-19T10:01:51;1.77;;;1.27;;
5650;SDS011;40241;52.684;9.758;2022-07-19T10:04:21;0.93;;;0.93;;
5650;SDS011;40241;52.684;9.758;2022-07-19T10:06:48;1.10;;;1.10;;
5650;SDS011;40241;52.684;9.758;2022-07-19T10:09:16;1.27;;;1.20;;
5650;SDS011;40241;52.684;9.758;2022-07-19T10:11:43;1.40;;;1.30;;
5650;SDS011;40241;52.684;9.758;2022-07-19T10:14:09;1.30;;;1.20;;
5650;SDS011;40241;52.684;9.758;2022-07-19T10:21:53;1.30;;;1.20;;
5650;SDS011;40241;52.684;9.758;2022-07-19T10:27:14;1.00;;;1.00;;
5650;SDS011;40241;52.684;9.758;2022-07-19T10:29:42;1.40;;;1.27;;
5650;SDS011;40241;52.684;9.758;2022-07-19T10:32:09;1.40;;;1.30;;
5650;SDS011;40241;52.684;9.758;2022-07-19T10:34:36;1.23;;;1.17;;
5650;SDS011;40241;52.684;9.758;2022-07-19T10:37:02;1.27;;;1.27;;
5650;SDS011;40241;52.684;9.758;2022-07-19T10:39:31;1.90;;;1.37;;
5650;SDS011;40241;52.684;9.758;2022-07-19T10:45:21;1.27;;;1.20;;
5650;SDS011;40241;52.684;9.758;2022-07-19T10:47:22;2.30;;;1.20;;
5650;SDS011;40241;52.684;9.758;2022-07-19T10:50:04;1.03;;;0.93;;
5650;SDS011;40241;52.684;9.758;2022-07-19T10:57:46;1.17;;;1.07;;
5650;SDS011;40241;52.684;9.758;2022-07-19T11:00:20;1.30;;;1.13;;
5650;SDS011;40241;52.684;9.758;2022-07-19T11:02:46;1.83;;;1.30;;
5650;SDS011;40241;52.684;9.758;2022-07-19T11:05:22;1.30;;;1.20;;
5650;SDS011;40241;52.684;9.758;2022-07-19T11:07:49;1.93;;;1.23;;
5650;SDS011;40241;52.684;9.758;2022-07-19T11:12:55;1.13;;;1.03;;
5650;SDS011;40241;52.684;9.758;2022-07-19T11:15:22;1.57;;;1.30;;
5650;SDS011;40241;52.684;9.758;2022-07-19T11:20:17;1.37;;;1.27;;
5650;SDS011;40241;52.684;9.758;2022-07-19T11:22:45;2.40;;;1.27;;
5650;SDS011;40241;52.684;9.758;2022-07-19T11:25:12;1.43;;;1.33;;
5650;SDS011;40241;52.684;9.758;2022-07-19T11:27:42;1.40;;;1.30;;
5650;SDS011;40241;52.684;9.758;2022-07-19T11:30:09;1.27;;;1.07;;
5650;SDS011;40241;52.684;9.758;2022-07-19T11:32:36;1.37;;;1.27;;
5650;SDS011;40241;52.684;9.758;2022-07-19T11:35:02;1.30;;;1.17;;
5650;SDS011;40241;52.684;9.758;2022-07-19T11:37:33;1.43;;;1.20;;
5650;SDS011;40241;52.684;9.758;2022-07-19T11:40:00;2.00;;;1.17;;
5650;SDS011;40241;52.684;9.758;2022-07-19T11:42:48;1.23;;;1.10;;
5650;SDS011;40241;52.684;9.758;2022-07-19T11:45:17;1.70;;;1.17;;
5650;SDS011;40241;52.684;9.758;2022-07-19T11:47:44;2.75;;;1.30;;
5650;SDS011;40241;52.684;9.758;2022-07-19T11:50:12;2.80;;;1.40;;
5650;SDS011;40241;52.684;9.758;2022-07-19T11:55:19;1.50;;;1.40;;
5650;SDS011;40241;52.684;9.758;2022-07-19T11:57:46;1.55;;;1.45;;
5650;SDS011;40241;52.684;9.758;2022-07-19T12:00:13;1.48;;;1.10;;
5650;SDS011;40241;52.684;9.758;2022-07-19T12:02:55;1.30;;;1.20;;
5650;SDS011;40241;52.684;9.758;2022-07-19T12:05:30;1.25;;;1.10;;
5650;SDS011;40241;52.684;9.758;2022-07-19T12:07:58;1.38;;;1.27;;
5650;SDS011;40241;52.684;9.758;2022-07-19T12:10:38;1.38;;;1.13;;
5650;SDS011;40241;52.684;9.758;2022-07-19T12:13:09;1.00;;;1.00;;
5650;SDS011;40241;52.684;9.758;2022-07-19T12:15:52;2.30;;;1.25;;
5650;SDS011;40241;52.684;9.758;2022-07-19T12:18:23;2.22;;;1.27;;
5650;SDS011;40241;52.684;9.758;2022-07-19T12:21:18;2.17;;;1.25;;
5650;SDS011;40241;52.684;9.758;2022-07-19T12:26:33;1.40;;;1.30;;
5650;SDS011;40241;52.684;9.758;2022-07-19T12:28:58;1.80;;;1.40;;
5650;SDS011;40241;52.684;9.758;2022-07-19T12:31:24;2.58;;;1.45;;
5650;SDS011;40241;52.684;9.758;2022-07-19T12:34:02;1.38;;;1.13;;
5650;SDS011;40241;52.684;9.758;2022-07-19T12:36:32;2.50;;;1.35;;
5650;SDS011;40241;52.684;9.758;2022-07-19T12:39:00;4.07;;;1.30;;
5650;SDS011;40241;52.684;9.758;2022-07-19T12:41:26;1.58;;;1.48;;
5650;SDS011;40241;52.684;9.758;2022-07-19T12:43:51;1.90;;;1.50;;
5650;SDS011;40241;52.684;9.758;2022-07-19T12:46:17;5.63;;;1.20;;
5650;SDS011;40241;52.684;9.758;2022-07-19T12:48:42;1.75;;;1.52;;
5650;SDS011;40241;52.684;9.758;2022-07-19T12:51:07;2.78;;;1.13;;
5650;SDS011;40241;52.684;9.758;2022-07-19T12:53:33;6.13;;;1.50;;
5650;SDS011;40241;52.684;9.758;2022-07-19T12:55:58;3.35;;;1.55;;
5650;SDS011;40241;52.684;9.758;2022-07-19T12:58:23;1.40;;;1.25;;
5650;SDS011;40241;52.684;9.758;2022-07-19T13:01:08;2.45;;;1.38;;
5650;SDS011;40241;52.684;9.758;2022-07-19T13:03:37;4.60;;;1.45;;
5650;SDS011;40241;52.684;9.758;2022-07-19T13:06:04;1.25;;;1.15;;
5650;SDS011;40241;52.684;9.758;2022-07-19T13:08:30;1.20;;;1.10;;
5650;SDS011;40241;52.684;9.758;2022-07-19T13:10:55;1.50;;;1.23;;
5650;SDS011;40241;52.684;9.758;2022-07-19T13:13:23;1.60;;;1.50;;
5650;SDS011;40241;52.684;9.758;2022-07-19T13:15:49;1.40;;;1.25;;
5650;SDS011;40241;52.684;9.758;2022-07-19T13:18:14;2.30;;;1.25;;
5650;SDS011;40241;52.684;9.758;2022-07-19T13:20:40;1.58;;;1.30;;
5650;SDS011;40241;52.684;9.758;2022-07-19T13:23:05;1.48;;;1.38;;
5650;SDS011;40241;52.684;9.758;2022-07-19T13:25:31;1.92;;;1.38;;
5650;SDS011;40241;52.684;9.758;2022-07-19T13:27:56;1.90;;;1.50;;
5650;SDS011;40241;52.684;9.758;2022-07-19T13:30:22;1.60;;;1.35;;
5650;SDS011;40241;52.684;9.758;2022-07-19T13:32:47;1.58;;;1.40;;
5650;SDS011;40241;52.684;9.758;2022-07-19T13:35:13;3.05;;;1.38;;
5650;SDS011;40241;52.684;9.758;2022-07-19T13:37:39;1.90;;;1.30;;
5650;SDS011;40241;52.684;9.758;2022-07-19T13:40:04;2.35;;;1.50;;
5650;SDS011;40241;52.684;9.758;2022-07-19T13:42:30;1.80;;;1.40;;
5650;SDS011;40241;52.684;9.758;2022-07-19T13:44:55;1.90;;;1.67;;
5650;SDS011;40241;52.684;9.758;2022-07-19T13:47:20;1.83;;;1.40;;
5650;SDS011;40241;52.684;9.758;2022-07-19T13:49:46;1.40;;;1.30;;
5650;SDS011;40241;52.684;9.758;2022-07-19T13:52:11;1.52;;;1.42;;
5650;SDS011;40241;52.684;9.758;2022-07-19T13:54:36;3.30;;;1.20;;
5650;SDS011;40241;52.684;9.758;2022-07-19T13:57:02;1.60;;;1.40;;
5650;SDS011;40241;52.684;9.758;2022-07-19T13:59:28;1.73;;;1.52;;
5650;SDS011;40241;52.684;9.758;2022-07-19T14:01:55;1.48;;;1.30;;
5650;SDS011;40241;52.684;9.758;2022-07-19T14:04:20;4.15;;;1.55;;
5650;SDS011;40241;52.684;9.758;2022-07-19T14:06:46;1.30;;;1.20;;
5650;SDS011;40241;52.684;9.758;2022-07-19T14:09:11;2.10;;;1.77;;
5650;SDS011;40241;52.684;9.758;2022-07-19T14:11:36;2.85;;;1.40;;
5650;SDS011;40241;52.684;9.758;2022-07-19T14:14:02;1.70;;;1.30;;
5650;SDS011;40241;52.684;9.758;2022-07-19T14:16:28;1.45;;;1.00;;
5650;SDS011;40241;52.684;9.758;2022-07-19T14:18:53;1.60;;;1.38;;
5650;SDS011;40241;52.684;9.758;2022-07-19T14:21:19;1.67;;;1.35;;
5650;SDS011;40241;52.684;9.758;2022-07-19T14:23:44;5.57;;;1.40;;
5650;SDS011;40241;52.684;9.758;2022-07-19T14:26:10;1.42;;;1.30;;
5650;SDS011;40241;52.684;9.758;2022-07-19T14:28:35;2.20;;;1.60;;
5650;SDS011;40241;52.684;9.758;2022-07-19T14:31:01;5.95;;;1.67;;
5650;SDS011;40241;52.684;9.758;2022-07-19T14:33:26;2.00;;;1.83;;
5650;SDS011;40241;52.684;9.758;2022-07-19T14:35:52;2.08;;;1.30;;
5650;SDS011;40241;52.684;9.758;2022-07-19T14:38:17;4.53;;;1.40;;
5650;SDS011;40241;52.684;9.758;2022-07-19T14:40:43;3.42;;;1.58;;
5650;SDS011;40241;52.684;9.758;2022-07-19T14:43:08;1.60;;;1.50;;
5650;SDS011;40241;52.684;9.758;2022-07-19T14:45:34;3.40;;;1.77;;
5650;SDS011;40241;52.684;9.758;2022-07-19T14:47:59;2.30;;;1.30;;
5650;SDS011;40241;52.684;9.758;2022-07-19T14:50:24;1.38;;;1.27;;
5650;SDS011;40241;52.684;9.758;2022-07-19T14:52:50;1.75;;;1.40;;
5650;SDS011;40241;52.684;9.758;2022-07-19T14:55:16;1.25;;;1.13;;
5650;SDS011;40241;52.684;9.758;2022-07-19T14:57:41;2.88;;;1.20;;
5650;SDS011;40241;52.684;9.758;2022-07-19T15:00:07;1.38;;;1.27;;
5650;SDS011;40241;52.684;9.758;2022-07-19T15:02:34;1.90;;;1.25;;
5650;SDS011;40241;52.684;9.758;2022-07-19T15:05:00;2.60;;;1.52;;
5650;SDS011;40241;52.684;9.758;2022-07-19T15:07:25;1.27;;;1.08;;
5650;SDS011;40241;52.684;9.758;2022-07-19T15:09:51;2.33;;;1.05;;
5650;SDS011;40241;52.684;9.758;2022-07-19T15:12:17;3.55;;;1.70;;
5650;SDS011;40241;52.684;9.758;2022-07-19T15:14:43;2.08;;;1.45;;
5650;SDS011;40241;52.684;9.758;2022-07-19T15:17:08;1.52;;;1.42;;
5650;SDS011;40241;52.684;9.758;2022-07-19T15:19:34;1.33;;;1.15;;
5650;SDS011;40241;52.684;9.758;2022-07-19T15:21:59;3.47;;;1.40;;
5650;SDS011;40241;52.684;9.758;2022-07-19T15:24:24;1.42;;;1.33;;
5650;SDS011;40241;52.684;9.758;2022-07-19T15:26:50;1.25;;;1.15;;
5650;SDS011;40241;52.684;9.758;2022-07-19T15:29:15;1.13;;;1.00;;
5650;SDS011;40241;52.684;9.758;2022-07-19T15:31:41;2.00;;;1.38;;
5650;SDS011;40241;52.684;9.758;2022-07-19T15:34:07;1.60;;;1.50;;
5650;SDS011;40241;52.684;9.758;2022-07-19T15:36:32;1.20;;;1.10;;
5650;SDS011;40241;52.684;9.758;2022-07-19T15:38:58;1.35;;;1.25;;
5650;SDS011;40241;52.684;9.758;2022-07-19T15:41:24;1.10;;;1.10;;